createdAt,value
2022-10-16T00:01:22.436Z,35.10
2022-10-16T00:03:50.131Z,35.10
2022-10-16T00:06:21.301Z,34.80
2022-10-16T00:08:50.657Z,35.10
2022-10-16T00:11:21.037Z,34.50
2022-10-16T00:13:49.535Z,34.40
2022-10-16T00:16:18.000Z,34.30
2022-10-16T00:18:45.381Z,34.20
2022-10-16T00:21:17.858Z,33.90
2022-10-16T00:23:45.411Z,33.90
2022-10-16T00:26:17.174Z,34.60
2022-10-16T00:28:46.476Z,34.70
2022-10-16T00:31:13.906Z,34.50
2022-10-16T00:33:41.705Z,35.10
2022-10-16T00:36:12.041Z,34.50
2022-10-16T00:38:39.906Z,34.90
2022-10-16T00:41:20.571Z,34.20
2022-10-16T00:43:55.304Z,34.50
2022-10-16T00:46:26.147Z,34.50
2022-10-16T00:48:58.932Z,35.10
2022-10-16T00:51:31.966Z,35.60
2022-10-16T00:53:59.608Z,35.10
2022-10-16T00:56:27.278Z,35.40
2022-10-16T00:58:54.512Z,35.30
2022-10-16T01:01:21.756Z,35.20
2022-10-16T01:03:48.685Z,35.00
2022-10-16T01:08:57.502Z,35.00
2022-10-16T01:11:43.192Z,35.40
2022-10-16T01:14:26.080Z,35.30
2022-10-16T01:17:07.733Z,36.10
2022-10-16T01:19:45.101Z,35.90
2022-10-16T01:22:12.200Z,36.00
2022-10-16T01:27:19.840Z,36.40
2022-10-16T01:29:49.508Z,36.00
2022-10-16T01:32:43.081Z,36.00
2022-10-16T01:35:19.626Z,36.30
2022-10-16T01:37:57.677Z,36.80
2022-10-16T01:40:27.677Z,36.80
2022-10-16T01:43:01.176Z,36.70
2022-10-16T01:45:31.185Z,36.50
2022-10-16T01:48:01.522Z,35.80
2022-10-16T01:50:28.923Z,35.60
2022-10-16T01:52:57.503Z,36.30
2022-10-16T01:55:31.333Z,36.40
2022-10-16T01:58:00.904Z,36.40
2022-10-16T02:00:28.251Z,35.70
2022-10-16T02:03:00.037Z,35.40
2022-10-16T02:05:33.338Z,35.30
2022-10-16T02:08:03.230Z,34.30
2022-10-16T02:10:33.251Z,34.50
2022-10-16T02:13:15.028Z,34.60
2022-10-16T02:15:41.983Z,34.30
2022-10-16T02:18:10.308Z,34.20
2022-10-16T02:20:58.974Z,34.30
2022-10-16T02:23:43.926Z,34.80
2022-10-16T02:26:16.649Z,34.70
2022-10-16T02:28:53.276Z,35.00
2022-10-16T02:31:28.981Z,34.70
2022-10-16T02:33:59.926Z,34.70
2022-10-16T02:36:28.570Z,34.50
2022-10-16T02:38:56.229Z,34.00
2022-10-16T02:41:24.906Z,34.70
2022-10-16T02:43:51.766Z,34.20
2022-10-16T02:46:19.722Z,34.40
2022-10-16T02:48:46.642Z,34.70
2022-10-16T02:51:13.545Z,34.50
2022-10-16T02:53:40.496Z,34.30
2022-10-16T02:56:07.617Z,34.80
2022-10-16T02:58:34.651Z,34.20
2022-10-16T03:01:01.600Z,34.30
2022-10-16T03:03:28.670Z,35.00
2022-10-16T03:05:55.856Z,35.50
2022-10-16T03:08:24.710Z,35.00
2022-10-16T03:10:52.801Z,35.50
2022-10-16T03:13:21.517Z,35.30
2022-10-16T03:15:48.986Z,34.70
2022-10-16T03:18:16.370Z,34.30
2022-10-16T03:20:44.749Z,33.90
2022-10-16T03:23:11.818Z,33.10
2022-10-16T03:25:38.780Z,33.20
2022-10-16T03:28:05.839Z,33.10
2022-10-16T03:30:33.108Z,33.10
2022-10-16T03:33:00.052Z,33.50
2022-10-16T03:35:26.945Z,34.10
2022-10-16T03:37:54.007Z,34.60
2022-10-16T03:40:21.100Z,34.20
2022-10-16T03:42:48.053Z,33.10
2022-10-16T03:45:15.230Z,32.80
2022-10-16T03:47:42.365Z,33.00
2022-10-16T03:50:09.948Z,33.50
2022-10-16T03:52:36.880Z,33.70
2022-10-16T03:55:03.891Z,33.20
2022-10-16T03:57:30.809Z,32.30
2022-10-16T03:59:57.672Z,32.20
2022-10-16T04:02:24.833Z,32.00
2022-10-16T04:04:51.779Z,32.30
2022-10-16T04:07:18.779Z,32.20
2022-10-16T04:09:45.733Z,32.60
2022-10-16T04:12:12.631Z,32.50
2022-10-16T04:14:39.525Z,32.10
2022-10-16T04:17:06.497Z,32.20
2022-10-16T04:19:33.433Z,32.90
2022-10-16T04:22:00.295Z,33.20
2022-10-16T04:24:27.180Z,32.90
2022-10-16T04:26:54.085Z,33.40
2022-10-16T04:29:20.982Z,33.50
2022-10-16T04:31:48.188Z,33.10
2022-10-16T04:34:15.135Z,33.30
2022-10-16T04:36:42.033Z,33.60
2022-10-16T04:39:08.997Z,33.10
2022-10-16T04:41:35.888Z,33.40
2022-10-16T04:44:02.835Z,34.00
2022-10-16T04:46:29.717Z,33.70
2022-10-16T04:48:56.655Z,34.20
2022-10-16T04:51:23.638Z,35.00
2022-10-16T04:53:50.537Z,34.40
2022-10-16T04:56:17.523Z,34.90
2022-10-16T04:58:44.386Z,34.90
2022-10-16T05:01:11.371Z,34.40
2022-10-16T05:03:38.429Z,34.30
2022-10-16T05:06:07.217Z,34.90
2022-10-16T05:08:34.339Z,34.70
2022-10-16T05:11:01.526Z,34.50
2022-10-16T05:13:28.535Z,34.10
2022-10-16T05:15:55.428Z,34.50
2022-10-16T05:18:22.503Z,34.10
2022-10-16T05:20:49.403Z,33.70
2022-10-16T05:23:16.313Z,33.40
2022-10-16T05:25:43.233Z,33.60
2022-10-16T05:28:10.139Z,33.30
2022-10-16T05:30:38.852Z,33.40
2022-10-16T05:33:05.845Z,33.90
2022-10-16T05:35:33.004Z,34.00
2022-10-16T05:37:59.882Z,34.30
2022-10-16T05:40:26.777Z,34.10
2022-10-16T05:42:56.815Z,34.10
2022-10-16T05:45:24.044Z,34.30
2022-10-16T05:47:51.256Z,34.80
2022-10-16T05:50:18.318Z,34.40
2022-10-16T05:52:45.201Z,34.50
2022-10-16T05:55:12.120Z,34.50
2022-10-16T05:57:39.690Z,34.30
2022-10-16T06:00:07.131Z,34.40
2022-10-16T06:02:34.044Z,34.60
2022-10-16T06:05:01.083Z,34.80
2022-10-16T06:07:28.330Z,35.10
2022-10-16T06:09:55.665Z,35.50
2022-10-16T06:12:22.600Z,35.50
2022-10-16T06:14:49.785Z,35.20
2022-10-16T06:17:16.900Z,35.30
2022-10-16T06:19:43.908Z,34.80
2022-10-16T06:22:11.284Z,34.70
2022-10-16T06:24:38.325Z,34.10
2022-10-16T06:27:05.990Z,34.40
2022-10-16T06:29:33.039Z,34.00
2022-10-16T06:32:00.754Z,33.30
2022-10-16T06:34:27.703Z,32.60
2022-10-16T06:36:54.685Z,32.70
2022-10-16T06:39:21.563Z,32.80
2022-10-16T06:41:48.510Z,33.10
2022-10-16T06:44:15.744Z,33.10
2022-10-16T06:46:42.934Z,33.30
2022-10-16T06:49:12.983Z,32.70
2022-10-16T06:51:43.502Z,33.40
2022-10-16T06:54:10.876Z,33.40
2022-10-16T06:56:38.756Z,33.70
2022-10-16T06:59:05.743Z,33.50
2022-10-16T07:01:33.403Z,33.70
2022-10-16T07:04:01.956Z,34.20
2022-10-16T07:06:32.898Z,34.30
2022-10-16T07:09:02.217Z,34.20
2022-10-16T07:11:29.161Z,34.80
2022-10-16T07:13:56.507Z,34.80
2022-10-16T07:16:33.917Z,35.60
2022-10-16T07:19:02.448Z,36.10
2022-10-16T07:21:37.676Z,36.00
2022-10-16T07:24:07.392Z,36.00
2022-10-16T07:26:36.621Z,36.50
2022-10-16T07:29:05.013Z,37.00
2022-10-16T07:31:35.415Z,37.20
2022-10-16T07:34:02.391Z,37.40
2022-10-16T07:36:29.640Z,37.50
2022-10-16T07:38:59.754Z,37.50
2022-10-16T07:41:27.913Z,37.50
2022-10-16T07:43:55.913Z,37.10
2022-10-16T07:46:23.999Z,36.90
2022-10-16T07:48:51.177Z,36.30
2022-10-16T07:51:20.276Z,36.70
2022-10-16T07:53:56.600Z,36.50
2022-10-16T07:56:23.965Z,36.60
2022-10-16T07:58:51.796Z,36.60
2022-10-16T08:01:19.670Z,36.80
2022-10-16T08:03:51.582Z,37.00
2022-10-16T08:06:23.419Z,35.80
2022-10-16T08:08:54.156Z,35.80
2022-10-16T08:11:21.414Z,35.40
2022-10-16T08:13:48.629Z,35.40
2022-10-16T08:16:15.583Z,35.00
2022-10-16T08:18:42.981Z,35.10
2022-10-16T08:21:21.255Z,35.30
2022-10-16T08:23:53.019Z,35.60
2022-10-16T08:26:25.750Z,35.70
2022-10-16T08:28:56.488Z,35.30
2022-10-16T08:31:24.059Z,35.50
2022-10-16T08:33:51.094Z,35.30
2022-10-16T08:36:18.296Z,35.40
2022-10-16T08:38:45.272Z,35.30
2022-10-16T08:41:35.337Z,34.90
2022-10-16T08:44:33.223Z,34.60
2022-10-16T08:47:21.147Z,34.60
2022-10-16T08:50:02.448Z,34.80
2022-10-16T08:52:36.603Z,35.40
2022-10-16T08:55:04.925Z,35.20
2022-10-16T08:57:33.718Z,35.20
2022-10-16T09:00:13.086Z,35.70
2022-10-16T09:02:54.036Z,36.10
2022-10-16T09:05:59.783Z,36.10
2022-10-16T09:08:48.010Z,35.60
2022-10-16T09:11:40.871Z,35.90
2022-10-16T09:14:13.554Z,35.70
2022-10-16T09:16:58.559Z,34.90
2022-10-16T09:19:50.590Z,35.20
2022-10-16T09:22:19.518Z,35.80
2022-10-16T09:24:46.897Z,36.20
2022-10-16T09:27:15.942Z,35.90
2022-10-16T09:29:43.211Z,35.90
2022-10-16T09:32:20.717Z,35.30
2022-10-16T09:34:58.202Z,35.40
2022-10-16T09:37:27.240Z,35.40
2022-10-16T09:39:55.782Z,35.90
2022-10-16T09:42:32.924Z,36.60
2022-10-16T09:45:00.158Z,36.50
2022-10-16T09:47:31.940Z,36.70
2022-10-16T09:50:20.689Z,36.80
2022-10-16T09:52:47.677Z,37.30
2022-10-16T09:55:18.080Z,38.20
2022-10-16T09:57:55.518Z,38.30
2022-10-16T10:00:26.795Z,38.90
2022-10-16T10:05:30.119Z,39.50
2022-10-16T10:08:04.058Z,39.60
2022-10-16T10:10:33.824Z,39.60
2022-10-16T10:13:01.108Z,39.60
2022-10-16T10:15:34.182Z,38.60
2022-10-16T10:18:04.328Z,38.50
2022-10-16T10:20:36.275Z,38.70
2022-10-16T10:23:26.846Z,38.40
2022-10-16T10:26:09.118Z,38.60
2022-10-16T10:28:54.608Z,38.60
2022-10-16T10:31:47.456Z,37.40
2022-10-16T10:34:55.767Z,36.60
2022-10-16T10:37:42.771Z,36.00
2022-10-16T10:40:38.518Z,35.80
2022-10-16T10:43:11.313Z,36.30
2022-10-16T10:45:49.653Z,35.90
2022-10-16T10:48:55.343Z,36.40
2022-10-16T10:51:27.836Z,36.30
2022-10-16T10:54:07.787Z,36.10
2022-10-16T10:56:57.392Z,36.30
2022-10-16T10:59:42.547Z,35.60
2022-10-16T11:02:12.289Z,35.20
2022-10-16T11:05:13.017Z,35.30
2022-10-16T11:07:52.430Z,35.90
2022-10-16T11:10:39.587Z,35.70
2022-10-16T11:13:30.218Z,35.00
2022-10-16T11:16:02.978Z,35.40
2022-10-16T11:18:45.012Z,35.40
2022-10-16T11:21:15.493Z,35.30
2022-10-16T11:23:52.564Z,36.40
2022-10-16T11:26:27.645Z,36.70
2022-10-16T11:29:00.756Z,36.90
2022-10-16T11:31:42.640Z,36.80
2022-10-16T11:34:40.028Z,37.10
2022-10-16T11:37:13.650Z,37.30
2022-10-16T11:39:41.454Z,36.50
2022-10-16T11:42:17.768Z,36.40
2022-10-16T11:45:22.069Z,36.30
2022-10-16T11:48:30.350Z,35.70
2022-10-16T11:51:09.227Z,35.20
2022-10-16T11:53:46.969Z,35.00
2022-10-16T11:56:18.105Z,36.10
2022-10-16T11:59:02.885Z,36.50
2022-10-16T12:01:32.708Z,37.70
2022-10-16T12:04:11.239Z,37.70
2022-10-16T12:07:07.094Z,37.30
2022-10-16T12:09:38.680Z,37.60
2022-10-16T12:12:06.159Z,38.00
2022-10-16T12:15:11.140Z,39.10
2022-10-16T12:17:39.238Z,38.80
2022-10-16T12:20:18.759Z,38.40
2022-10-16T12:22:58.026Z,38.70
2022-10-16T12:25:24.973Z,38.20
2022-10-16T12:28:18.197Z,37.70
2022-10-16T12:30:54.678Z,36.50
2022-10-16T12:33:43.367Z,36.30
2022-10-16T12:36:16.267Z,37.50
2022-10-16T12:38:51.391Z,38.10
2022-10-16T12:41:33.075Z,38.20
2022-10-16T12:44:03.740Z,38.50
2022-10-16T12:46:30.715Z,37.60
2022-10-16T12:49:22.516Z,37.40
2022-10-16T12:51:49.540Z,37.30
2022-10-16T12:54:30.663Z,36.90
2022-10-16T12:57:22.318Z,37.20
2022-10-16T12:59:55.487Z,36.80
2022-10-16T13:02:53.130Z,37.00
2022-10-16T13:05:41.384Z,35.80
2022-10-16T13:08:29.680Z,35.20
2022-10-16T13:11:10.086Z,35.30
2022-10-16T13:13:54.503Z,35.20
2022-10-16T13:16:56.292Z,34.90
2022-10-16T13:19:54.370Z,35.40
2022-10-16T13:22:52.675Z,35.80
2022-10-16T13:25:34.318Z,36.20
2022-10-16T13:28:07.591Z,36.90
2022-10-16T13:30:44.998Z,37.30
2022-10-16T13:33:17.207Z,37.80
2022-10-16T13:35:53.564Z,37.20
2022-10-16T13:38:23.912Z,36.90
2022-10-16T13:41:04.260Z,37.50
2022-10-16T13:43:37.158Z,37.80
2022-10-16T13:46:05.448Z,37.60
2022-10-16T13:48:33.808Z,37.90
2022-10-16T13:51:01.616Z,38.50
2022-10-16T13:53:35.698Z,38.10
2022-10-16T13:56:11.043Z,38.20
2022-10-16T13:58:39.317Z,37.20
2022-10-16T14:01:17.709Z,36.70
2022-10-16T14:03:46.417Z,36.70
2022-10-16T14:06:17.295Z,36.60
2022-10-16T14:08:47.027Z,37.30
2022-10-16T14:11:14.098Z,37.40
2022-10-16T14:13:45.663Z,37.40
2022-10-16T14:16:20.005Z,37.30
2022-10-16T14:19:10.392Z,37.20
2022-10-16T14:21:38.580Z,37.80
2022-10-16T14:24:36.427Z,37.80
2022-10-16T14:27:23.893Z,38.50
2022-10-16T14:29:50.857Z,38.40
2022-10-16T14:32:25.757Z,38.80
2022-10-16T14:34:55.983Z,38.70
2022-10-16T14:37:30.990Z,38.80
2022-10-16T14:39:58.483Z,39.10
2022-10-16T14:42:27.540Z,38.50
2022-10-16T14:44:56.550Z,38.30
2022-10-16T14:47:29.884Z,37.90
2022-10-16T14:50:00.167Z,38.00
2022-10-16T14:52:27.293Z,38.30
2022-10-16T14:54:57.634Z,38.10
2022-10-16T14:57:29.080Z,38.30
2022-10-16T14:59:57.510Z,38.50
2022-10-16T15:02:28.738Z,38.30
2022-10-16T15:04:56.589Z,38.00
2022-10-16T15:07:24.161Z,38.10
2022-10-16T15:09:58.920Z,38.30
2022-10-16T15:12:25.889Z,38.60
2022-10-16T15:14:54.605Z,38.50
2022-10-16T15:17:22.283Z,38.50
2022-10-16T15:19:49.394Z,38.00
2022-10-16T15:22:16.328Z,37.60
2022-10-16T15:24:43.954Z,37.80
2022-10-16T15:27:11.201Z,38.10
2022-10-16T15:29:38.157Z,38.10
2022-10-16T15:32:05.377Z,38.20
2022-10-16T15:34:32.304Z,38.70
2022-10-16T15:37:00.900Z,38.70
2022-10-16T15:39:27.979Z,38.30
2022-10-16T15:41:55.014Z,38.10
2022-10-16T15:44:24.306Z,37.80
2022-10-16T15:46:51.387Z,37.30
2022-10-16T15:49:18.425Z,37.30
2022-10-16T15:51:46.300Z,37.80
2022-10-16T15:54:13.968Z,37.80
2022-10-16T15:56:40.956Z,37.80
2022-10-16T15:59:07.946Z,37.60
2022-10-16T16:01:36.089Z,37.20
2022-10-16T16:04:10.935Z,37.60
2022-10-16T16:06:45.853Z,37.40
2022-10-16T16:09:14.731Z,37.50
2022-10-16T16:11:42.300Z,37.60
2022-10-16T16:14:14.077Z,37.60
2022-10-16T16:16:41.047Z,37.30
2022-10-16T16:19:11.465Z,37.00
2022-10-16T16:21:39.727Z,36.90
2022-10-16T16:24:09.370Z,37.00
2022-10-16T16:26:40.601Z,36.80
2022-10-16T16:29:07.933Z,36.80
2022-10-16T16:31:35.866Z,37.20
2022-10-16T16:34:04.552Z,37.30
2022-10-16T16:36:32.064Z,37.30
2022-10-16T16:38:59.446Z,37.00
2022-10-16T16:41:31.133Z,36.40
2022-10-16T16:44:06.226Z,35.90
2022-10-16T16:46:34.135Z,35.90
2022-10-16T16:49:02.214Z,35.80
2022-10-16T16:51:29.723Z,35.40
2022-10-16T16:53:57.186Z,35.60
2022-10-16T16:56:26.784Z,35.80
2022-10-16T16:58:57.534Z,35.70
2022-10-16T17:01:28.499Z,35.70
2022-10-16T17:03:57.586Z,35.60
2022-10-16T17:06:33.422Z,35.40
2022-10-16T17:09:04.708Z,35.50
2022-10-16T17:11:31.793Z,35.60
2022-10-16T17:14:01.978Z,35.70
2022-10-16T17:16:34.908Z,35.60
2022-10-16T17:19:12.180Z,35.20
2022-10-16T17:21:41.539Z,35.80
2022-10-16T17:24:11.156Z,35.90
2022-10-16T17:26:43.978Z,35.40
2022-10-16T17:29:13.400Z,35.90
2022-10-16T17:31:43.215Z,36.00
2022-10-16T17:34:12.516Z,35.40
2022-10-16T17:36:44.441Z,35.00
2022-10-16T17:39:15.523Z,35.00
2022-10-16T17:41:42.947Z,35.30
2022-10-16T17:44:13.526Z,35.50
2022-10-16T17:46:41.391Z,35.30
2022-10-16T17:49:10.371Z,35.40
2022-10-16T17:51:37.386Z,35.30
2022-10-16T17:54:05.861Z,35.10
2022-10-16T17:56:36.438Z,35.00
2022-10-16T17:59:09.489Z,34.50
2022-10-16T18:01:41.358Z,34.60
2022-10-16T18:04:15.334Z,34.50
2022-10-16T18:06:45.147Z,34.50
2022-10-16T18:09:15.910Z,34.50
2022-10-16T18:11:43.137Z,34.50
2022-10-16T18:14:15.675Z,34.50
2022-10-16T18:16:43.699Z,34.70
2022-10-16T18:19:13.466Z,34.10
2022-10-16T18:21:43.127Z,33.80
2022-10-16T18:24:11.080Z,33.60
2022-10-16T18:26:42.405Z,33.80
2022-10-16T18:29:12.161Z,34.20
2022-10-16T18:31:43.094Z,34.20
2022-10-16T18:34:12.271Z,34.20
2022-10-16T18:36:39.974Z,35.00
2022-10-16T18:39:11.108Z,35.60
2022-10-16T18:41:41.630Z,35.70
2022-10-16T18:46:45.990Z,35.60
2022-10-16T18:49:13.890Z,35.70
2022-10-16T18:51:42.674Z,35.70
2022-10-16T18:54:15.103Z,35.50
2022-10-16T18:56:44.223Z,35.00
2022-10-16T18:59:12.038Z,35.30
2022-10-16T19:01:40.894Z,35.70
2022-10-16T19:04:15.617Z,36.00
2022-10-16T19:06:47.309Z,36.40
2022-10-16T19:09:17.258Z,36.60
2022-10-16T19:11:46.008Z,36.70
2022-10-16T19:14:16.799Z,36.80
2022-10-16T19:16:44.743Z,36.40
2022-10-16T19:19:19.528Z,36.60
2022-10-16T19:21:48.339Z,36.90
2022-10-16T19:24:16.509Z,37.20
2022-10-16T19:26:43.880Z,37.50
2022-10-16T19:29:14.182Z,37.50
2022-10-16T19:31:42.540Z,37.50
2022-10-16T19:34:12.000Z,37.30
2022-10-16T19:36:44.491Z,37.30
2022-10-16T19:39:17.375Z,37.20
2022-10-16T19:41:49.951Z,36.90
2022-10-16T19:44:17.539Z,36.50
2022-10-16T19:46:50.596Z,36.30
2022-10-16T19:49:21.275Z,35.80
2022-10-16T19:51:52.056Z,35.80
2022-10-16T19:54:19.601Z,36.00
2022-10-16T19:56:49.237Z,36.10
2022-10-16T19:59:19.339Z,35.90
2022-10-16T20:01:51.995Z,35.60
2022-10-16T20:04:19.855Z,35.40
2022-10-16T20:06:48.785Z,35.10
2022-10-16T20:09:16.322Z,35.00
2022-10-16T20:11:43.635Z,35.70
2022-10-16T20:14:11.862Z,36.20
2022-10-16T20:16:40.369Z,36.30
2022-10-16T20:19:07.672Z,36.50
2022-10-16T20:21:36.078Z,36.30
2022-10-16T20:24:08.291Z,35.80
2022-10-16T20:26:38.805Z,35.40
2022-10-16T20:29:07.738Z,35.40
2022-10-16T20:31:36.049Z,35.60
2022-10-16T20:34:07.639Z,35.30
2022-10-16T20:36:36.174Z,34.90
2022-10-16T20:39:05.057Z,34.80
2022-10-16T20:41:32.985Z,35.00
2022-10-16T20:44:00.632Z,35.40
2022-10-16T20:46:31.193Z,36.00
2022-10-16T20:49:10.614Z,36.20
2022-10-16T20:51:45.755Z,36.10
2022-10-16T20:54:13.790Z,35.50
2022-10-16T20:56:45.945Z,35.60
2022-10-16T20:59:14.232Z,35.60
2022-10-16T21:01:42.492Z,35.20
2022-10-16T21:04:12.079Z,35.00
2022-10-16T21:06:42.746Z,34.70
2022-10-16T21:09:11.763Z,35.20
2022-10-16T21:11:40.795Z,35.50
2022-10-16T21:14:11.001Z,35.40
2022-10-16T21:16:40.381Z,35.50
2022-10-16T21:19:08.773Z,35.20
2022-10-16T21:21:39.270Z,34.80
2022-10-16T21:24:12.243Z,34.50
2022-10-16T21:26:44.929Z,34.20
2022-10-16T21:29:13.612Z,34.40
2022-10-16T21:31:42.976Z,35.00
2022-10-16T21:34:12.361Z,35.20
2022-10-16T21:36:42.971Z,35.60
2022-10-16T21:39:15.439Z,35.40
2022-10-16T21:41:46.062Z,35.60
2022-10-16T21:44:15.746Z,36.20
2022-10-16T21:46:45.843Z,36.40
2022-10-16T21:49:18.275Z,36.50
2022-10-16T21:51:51.025Z,36.70
2022-10-16T21:54:24.465Z,36.60
2022-10-16T21:56:54.514Z,36.70
2022-10-16T21:59:24.200Z,37.00
2022-10-16T22:01:56.448Z,37.20
2022-10-16T22:04:23.393Z,37.10
2022-10-16T22:06:52.423Z,36.60
2022-10-16T22:09:21.126Z,36.00
2022-10-16T22:11:51.163Z,36.40
2022-10-16T22:14:22.952Z,36.70
2022-10-16T22:16:52.556Z,37.00
2022-10-16T22:19:23.407Z,37.20
2022-10-16T22:21:57.672Z,37.20
2022-10-16T22:24:26.765Z,37.30
2022-10-16T22:26:55.990Z,37.30
2022-10-16T22:29:25.335Z,37.30
2022-10-16T22:31:54.944Z,37.00
2022-10-16T22:34:24.300Z,36.90
2022-10-16T22:36:53.503Z,37.00
2022-10-16T22:39:22.819Z,37.00
2022-10-16T22:41:52.631Z,37.10
2022-10-16T22:44:21.829Z,37.00
2022-10-16T22:46:50.648Z,37.00
2022-10-16T22:49:21.422Z,37.10
2022-10-16T22:54:21.772Z,37.10
2022-10-16T22:56:51.354Z,36.80
2022-10-16T22:59:20.372Z,36.50
2022-10-16T23:01:49.648Z,36.50
2022-10-16T23:04:19.163Z,36.50
2022-10-16T23:06:48.296Z,36.80
2022-10-16T23:09:17.537Z,36.90
2022-10-16T23:11:46.999Z,36.80
2022-10-16T23:14:20.471Z,36.90
2022-10-16T23:16:50.323Z,37.00
2022-10-16T23:19:19.629Z,37.10
2022-10-16T23:21:48.919Z,37.20
2022-10-16T23:24:18.547Z,37.20
2022-10-16T23:26:47.788Z,37.20
2022-10-16T23:29:16.650Z,37.20
2022-10-16T23:31:46.155Z,37.20
2022-10-16T23:34:15.503Z,37.20
2022-10-16T23:36:45.496Z,37.10
2022-10-16T23:39:14.763Z,37.10
2022-10-16T23:41:45.768Z,37.10
2022-10-16T23:44:14.847Z,37.10
2022-10-16T23:46:44.307Z,37.20
2022-10-16T23:49:13.370Z,37.20
2022-10-16T23:51:42.599Z,37.20
2022-10-16T23:54:12.014Z,37.20
2022-10-16T23:56:41.006Z,37.10
2022-10-16T23:59:10.202Z,37.20
